Airfield :
LOGIN :

Register | Disclaimer

   EN    FR    IT 

 










Legend :    VFR   Marginal VFR   IFR   Intensive IFR   Very Intensive IFR
Visi :
Ceiling :
>= 8 km
>= 3000ft
5 to 8 km
1000 to 3000 ft
1500m to 5 km
500 to 1000 ft
800 to 1500m
200 to 500 ft
< 800m
< 200 ft
Symbols :   Thunderstorms  Fog  Heavy snow  Heavy precipitations  Wind > 20 kt
SIGMETs :     Misc.  Thunderstorms  Icing  Turbulence  Mountain Waves  Volcanic Ashes






- Airport Elevation : 268 ft
- IATA code : BFS


EGAA - Belfast Aldergrove

CURRENT METAR :
  • 102050Z 22012KT 9999 -SHRA FEW015 SCT026 BKN032 04/03 Q0997

EXPIRED METARs :
  • 102020Z 24018KT 9999 -SHRA FEW018 SCT028 05/04 Q0996
  • 101950Z 21013KT 9999 FEW016 SCT027 05/04 Q0996
  • 101920Z 22014KT 9999 -RA FEW016 SCT022 BKN037 05/04 Q0995
  • 101850Z 23017KT 9999 -RA FEW016 SCT023 BKN037 05/04 Q0994
  • 101820Z 23018KT 9999 SCT015 BKN020 05/04 Q0994

TAF TAF EGAA
Valid from the 10 at 18:00 until the 11 at 18:00 UTC


101656Z 1018/1118 24015KT 9999 FEW012 SCT025
TEMPO 1018/1118 24018G28KT 7000 SHRA SCT008 BKN012
PROB30
TEMPO 1022/1110 BKN008



MET'MAP, your aeronautical weather chart ! - Copyright ORBIFLY December 2007 - Disclaimer

ORBIFLY MET'MAP TEAM :

Programming & Development : Alexandra Zaïnal
Concept & original design : Baudouin d'Aumeries
Assistance for programming : Marc-Olivier Méhu
Technical & hardware support : Manuel Goepfert

Contact : metmap@orbifly.com




SOURCES & CREDITS :

   NOAA